createdAt,value
2019-02-07T00:00:15.354Z,-4.08
2019-02-07T00:01:15.337Z,-4.07
2019-02-07T00:02:15.331Z,-4.05
2019-02-07T00:03:15.324Z,-4.05
2019-02-07T00:04:15.309Z,-3.99
2019-02-07T00:05:15.332Z,-3.91
2019-02-07T00:06:15.296Z,-4.04
2019-02-07T00:07:15.327Z,-3.93
2019-02-07T00:08:15.301Z,-3.99
2019-02-07T00:09:15.269Z,-4.01
2019-02-07T00:10:15.248Z,-3.86
2019-02-07T00:11:15.253Z,-3.90
2019-02-07T00:12:15.230Z,-3.90
2019-02-07T00:13:15.254Z,-3.89
2019-02-07T00:14:15.221Z,-3.89
2019-02-07T00:15:15.217Z,-3.76
2019-02-07T00:16:15.191Z,-3.87
2019-02-07T00:17:15.203Z,-3.91
2019-02-07T00:18:15.250Z,-3.90
2019-02-07T00:19:15.159Z,-3.86
2019-02-07T00:20:15.152Z,-3.91
2019-02-07T00:21:15.144Z,-3.91
2019-02-07T00:22:15.131Z,-3.94
2019-02-07T00:23:15.183Z,-3.90
2019-02-07T00:24:15.111Z,-3.87
2019-02-07T00:25:15.107Z,-3.80
2019-02-07T00:26:15.098Z,-3.81
2019-02-07T00:27:15.080Z,-3.90
2019-02-07T00:28:15.088Z,-3.80
2019-02-07T00:29:15.098Z,-3.78
2019-02-07T00:30:15.057Z,-3.84
2019-02-07T00:31:15.043Z,-3.72
2019-02-07T00:32:15.038Z,-3.81
2019-02-07T00:33:15.033Z,-3.75
2019-02-07T00:34:15.042Z,-3.86
2019-02-07T00:35:14.999Z,-3.83
2019-02-07T00:36:15.001Z,-3.76
2019-02-07T00:37:14.984Z,-3.72
2019-02-07T00:38:14.974Z,-3.75
2019-02-07T00:39:14.985Z,-3.70
2019-02-07T00:40:14.952Z,-3.71
2019-02-07T00:41:14.946Z,-3.60
2019-02-07T00:42:14.932Z,-3.67
2019-02-07T00:43:14.921Z,-3.72
2019-02-07T00:44:14.942Z,-3.70
2019-02-07T00:45:14.904Z,-3.70
2019-02-07T00:46:14.894Z,-3.62
2019-02-07T00:47:14.886Z,-3.71
2019-02-07T00:48:14.874Z,-3.67
2019-02-07T00:49:14.894Z,-3.70
2019-02-07T00:50:14.856Z,-3.67
2019-02-07T00:51:14.843Z,-3.67
2019-02-07T00:52:14.831Z,-3.65
2019-02-07T00:53:14.827Z,-3.67
2019-02-07T00:54:14.851Z,-3.60
2019-02-07T00:55:14.810Z,-3.60
2019-02-07T00:56:14.797Z,-3.46
2019-02-07T00:57:14.794Z,-3.46
2019-02-07T00:58:14.776Z,-3.49
2019-02-07T00:59:14.794Z,-3.53
2019-02-07T01:00:14.804Z,-3.46
2019-02-07T01:01:14.753Z,-3.46
2019-02-07T01:02:14.737Z,-3.54
2019-02-07T01:03:14.724Z,-3.54
2019-02-07T01:04:14.743Z,-3.51
2019-02-07T01:05:14.709Z,-3.49
2019-02-07T01:06:14.698Z,-3.51
2019-02-07T01:07:14.692Z,-3.50
2019-02-07T01:08:14.672Z,-3.51
2019-02-07T01:09:14.694Z,-3.44
2019-02-07T01:10:14.655Z,-3.51
2019-02-07T01:11:14.671Z,-3.56
2019-02-07T01:12:14.633Z,-3.54
2019-02-07T01:13:14.632Z,-3.46
2019-02-07T01:14:14.625Z,-3.41
2019-02-07T01:15:14.639Z,-3.44
2019-02-07T01:16:14.600Z,-3.46
2019-02-07T01:17:14.589Z,-3.51
2019-02-07T01:18:14.579Z,-3.46
2019-02-07T01:19:14.607Z,-3.41
2019-02-07T01:20:14.560Z,-3.56
2019-02-07T01:21:14.551Z,-3.56
2019-02-07T01:22:14.580Z,-3.54
2019-02-07T01:23:14.534Z,-3.57
2019-02-07T01:24:14.520Z,-3.51
2019-02-07T01:25:14.545Z,-3.54
2019-02-07T01:26:14.500Z,-3.53
2019-02-07T01:27:14.494Z,-3.54
2019-02-07T01:28:14.475Z,-3.60
2019-02-07T01:29:14.468Z,-3.51
2019-02-07T01:30:14.463Z,-3.46
2019-02-07T01:31:14.473Z,-3.46
2019-02-07T01:32:14.441Z,-3.60
2019-02-07T01:33:14.431Z,-3.53
2019-02-07T01:34:14.429Z,-3.61
2019-02-07T01:35:14.413Z,-3.49
2019-02-07T01:36:14.434Z,-3.57
2019-02-07T01:37:14.394Z,-3.57
2019-02-07T01:38:14.385Z,-3.62
2019-02-07T01:39:14.368Z,-3.53
2019-02-07T01:40:14.362Z,-3.68
2019-02-07T01:41:14.355Z,-3.68
2019-02-07T01:42:14.739Z,-3.70
2019-02-07T01:43:14.350Z,-3.62
2019-02-07T01:44:14.325Z,-3.67
2019-02-07T01:45:15.143Z,-3.57
2019-02-07T01:46:16.643Z,-3.68
2019-02-07T01:47:14.300Z,-3.53
2019-02-07T01:48:14.308Z,-3.54
2019-02-07T01:49:14.275Z,-3.61
2019-02-07T01:50:14.307Z,-3.51
2019-02-07T01:51:14.257Z,-3.53
2019-02-07T01:52:14.241Z,-3.53
2019-02-07T01:53:14.234Z,-3.56
2019-02-07T01:54:14.217Z,-3.57
2019-02-07T01:55:14.251Z,-3.54
2019-02-07T01:56:14.196Z,-3.46
2019-02-07T01:57:14.187Z,-3.49
2019-02-07T01:58:14.208Z,-3.51
2019-02-07T01:59:14.176Z,-3.56
2019-02-07T02:00:14.193Z,-3.50
2019-02-07T02:01:14.161Z,-3.50
2019-02-07T02:02:14.179Z,-3.53
2019-02-07T02:03:14.137Z,-3.49
2019-02-07T02:04:14.114Z,-3.44
2019-02-07T02:05:14.159Z,-3.46
2019-02-07T02:06:14.111Z,-3.60
2019-02-07T02:07:14.093Z,-3.49
2019-02-07T02:08:14.125Z,-3.54
2019-02-07T02:09:14.088Z,-3.53
2019-02-07T02:10:15.688Z,-3.51
2019-02-07T02:11:14.057Z,-3.54
2019-02-07T02:12:14.048Z,-3.51
2019-02-07T02:13:14.032Z,-3.47
2019-02-07T02:14:14.025Z,-3.56
2019-02-07T02:15:24.138Z,-3.56
2019-02-07T02:16:15.002Z,-3.41
2019-02-07T02:17:13.995Z,-3.43
2019-02-07T02:18:13.982Z,-3.56
2019-02-07T02:19:13.982Z,-3.54
2019-02-07T02:20:13.972Z,-3.54
2019-02-07T02:21:13.976Z,-3.51
2019-02-07T02:22:13.946Z,-3.54
2019-02-07T02:23:13.929Z,-3.50
2019-02-07T02:24:13.922Z,-3.51
2019-02-07T02:25:13.913Z,-3.49
2019-02-07T02:26:13.928Z,-3.51
2019-02-07T02:27:13.904Z,-3.50
2019-02-07T02:28:13.878Z,-3.47
2019-02-07T02:29:13.877Z,-3.54
2019-02-07T02:30:13.865Z,-3.53
2019-02-07T02:31:13.878Z,-3.49
2019-02-07T02:32:13.843Z,-3.51
2019-02-07T02:33:13.834Z,-3.47
2019-02-07T02:34:13.871Z,-3.47
2019-02-07T02:35:13.817Z,-3.46
2019-02-07T02:36:13.831Z,-3.49
2019-02-07T02:37:13.798Z,-3.47
2019-02-07T02:38:13.780Z,-3.49
2019-02-07T02:39:13.773Z,-3.47
2019-02-07T02:40:13.762Z,-3.41
2019-02-07T02:41:13.747Z,-3.54
2019-02-07T02:42:13.771Z,-3.41
2019-02-07T02:43:13.736Z,-3.50
2019-02-07T02:44:13.723Z,-3.51
2019-02-07T02:45:13.743Z,-3.47
2019-02-07T02:46:13.709Z,-3.41
2019-02-07T02:47:13.697Z,-3.49
2019-02-07T02:48:13.682Z,-3.39
2019-02-07T02:49:13.674Z,-3.46
2019-02-07T02:50:13.678Z,-3.43
2019-02-07T02:51:13.682Z,-3.39
2019-02-07T02:52:13.642Z,-3.43
2019-02-07T02:53:13.642Z,-3.39
2019-02-07T02:54:13.626Z,-3.46
2019-02-07T02:55:13.612Z,-3.39
2019-02-07T02:56:13.611Z,-3.36
2019-02-07T02:57:13.632Z,-3.46
2019-02-07T02:58:13.585Z,-3.43
2019-02-07T02:59:13.577Z,-3.44
2019-02-07T03:00:13.663Z,-3.36
2019-02-07T03:01:13.597Z,-3.44
2019-02-07T03:02:13.573Z,-3.36
2019-02-07T03:03:13.535Z,-3.39
2019-02-07T03:04:13.526Z,-3.36
2019-02-07T03:05:13.519Z,-3.28
2019-02-07T03:06:13.510Z,-3.35
2019-02-07T03:07:13.495Z,-3.32
2019-02-07T03:08:13.519Z,-3.26
2019-02-07T03:09:13.472Z,-3.32
2019-02-07T03:10:13.471Z,-3.26
2019-02-07T03:11:13.868Z,-3.28
2019-02-07T03:12:13.657Z,-3.25
2019-02-07T03:13:13.617Z,-3.26
2019-02-07T03:14:13.663Z,-3.25
2019-02-07T03:15:13.648Z,-3.28
2019-02-07T03:16:13.647Z,-3.31
2019-02-07T03:17:14.057Z,-3.29
2019-02-07T03:18:13.630Z,-3.32
2019-02-07T03:19:13.626Z,-3.36
2019-02-07T03:20:13.598Z,-3.44
2019-02-07T03:21:13.614Z,-3.39
2019-02-07T03:22:13.612Z,-3.41
2019-02-07T03:23:13.832Z,-3.43
2019-02-07T03:24:14.165Z,-3.49
2019-02-07T03:25:13.544Z,-3.43
2019-02-07T03:26:14.156Z,-3.36
2019-02-07T03:27:13.580Z,-3.39
2019-02-07T03:28:13.559Z,-3.32
2019-02-07T03:29:13.821Z,-3.36
2019-02-07T03:30:13.494Z,-3.29
2019-02-07T03:31:13.482Z,-3.33
2019-02-07T03:32:13.477Z,-3.35
2019-02-07T03:33:13.459Z,-3.33
2019-02-07T03:34:13.439Z,-3.33
2019-02-07T03:35:13.677Z,-3.38
2019-02-07T03:36:13.421Z,-3.38
2019-02-07T03:37:13.414Z,-3.47
2019-02-07T03:38:13.395Z,-3.46
2019-02-07T03:39:13.325Z,-3.43
2019-02-07T03:40:13.645Z,-3.33
2019-02-07T03:41:13.385Z,-3.43
2019-02-07T03:42:13.391Z,-3.36
2019-02-07T03:43:13.591Z,-3.36
2019-02-07T03:44:13.366Z,-3.35
2019-02-07T03:45:13.340Z,-3.32
2019-02-07T03:46:13.329Z,-3.32
2019-02-07T03:47:13.600Z,-3.39
2019-02-07T03:48:13.317Z,-3.33
2019-02-07T03:49:13.294Z,-3.36
2019-02-07T03:50:13.301Z,-3.41
2019-02-07T03:51:13.544Z,-3.44
2019-02-07T03:52:13.304Z,-3.46
2019-02-07T03:53:13.270Z,-3.41
2019-02-07T03:54:13.237Z,-3.39
2019-02-07T03:55:13.227Z,-3.35
2019-02-07T03:56:13.241Z,-3.39
2019-02-07T03:57:13.492Z,-3.33
2019-02-07T03:58:13.205Z,-3.43
2019-02-07T03:59:13.206Z,-3.36
2019-02-07T04:00:13.195Z,-3.44
2019-02-07T04:01:13.199Z,-3.33
2019-02-07T04:02:13.154Z,-3.43
2019-02-07T04:03:13.398Z,-3.36
2019-02-07T04:04:13.168Z,-3.44
2019-02-07T04:05:13.907Z,-3.39
2019-02-07T04:06:13.099Z,-3.36
2019-02-07T04:07:13.118Z,-3.44
2019-02-07T04:08:13.128Z,-3.47
2019-02-07T04:09:13.391Z,-3.39
2019-02-07T04:10:13.095Z,-3.50
2019-02-07T04:11:13.380Z,-3.49
2019-02-07T04:12:13.058Z,-3.41
2019-02-07T04:13:13.039Z,-3.41
2019-02-07T04:14:13.070Z,-3.44
2019-02-07T04:15:13.055Z,-3.36
2019-02-07T04:16:15.322Z,-3.41
2019-02-07T04:17:12.844Z,-3.31
2019-02-07T04:18:12.820Z,-3.43
2019-02-07T04:19:12.802Z,-3.44
2019-02-07T04:20:12.801Z,-3.43
2019-02-07T04:21:12.778Z,-3.41
2019-02-07T04:22:12.774Z,-3.46
2019-02-07T04:23:12.762Z,-3.36
2019-02-07T04:24:12.742Z,-3.41
2019-02-07T04:25:12.741Z,-3.43
2019-02-07T04:26:12.756Z,-3.41
2019-02-07T04:27:12.711Z,-3.39
2019-02-07T04:28:12.731Z,-3.43
2019-02-07T04:29:12.690Z,-3.35
2019-02-07T04:30:13.674Z,-3.33
2019-02-07T04:31:12.676Z,-3.33
2019-02-07T04:32:12.667Z,-3.28
2019-02-07T04:33:12.657Z,-3.33
2019-02-07T04:34:12.701Z,-3.39
2019-02-07T04:35:12.639Z,-3.32
2019-02-07T04:36:12.626Z,-3.38
2019-02-07T04:37:12.615Z,-3.39
2019-02-07T04:38:12.601Z,-3.36
2019-02-07T04:39:12.605Z,-3.29
2019-02-07T04:40:12.818Z,-3.35
2019-02-07T04:41:12.575Z,-3.35
2019-02-07T04:42:12.591Z,-3.39
2019-02-07T04:43:12.558Z,-3.29
2019-02-07T04:44:12.551Z,-3.43
2019-02-07T04:45:14.182Z,-3.33
2019-02-07T04:46:12.521Z,-3.38
2019-02-07T04:47:12.514Z,-3.31
2019-02-07T04:48:12.561Z,-3.33
2019-02-07T04:49:12.527Z,-3.35
2019-02-07T04:50:12.483Z,-3.35
2019-02-07T04:51:12.478Z,-3.38
2019-02-07T04:52:12.468Z,-3.35
2019-02-07T04:53:12.458Z,-3.38
2019-02-07T04:54:12.483Z,-3.39
2019-02-07T04:55:12.429Z,-3.35
2019-02-07T04:56:12.422Z,-3.32
2019-02-07T04:57:12.423Z,-3.29
2019-02-07T04:58:12.411Z,-3.29
2019-02-07T04:59:12.441Z,-3.33
2019-02-07T05:00:12.402Z,-3.33
2019-02-07T05:01:12.374Z,-3.33
2019-02-07T05:02:12.393Z,-3.32
2019-02-07T05:03:12.357Z,-3.29
2019-02-07T05:04:12.373Z,-3.32
2019-02-07T05:05:12.335Z,-3.32
2019-02-07T05:06:12.326Z,-3.36
2019-02-07T05:07:12.337Z,-3.31
2019-02-07T05:08:12.311Z,-3.25
2019-02-07T05:09:12.299Z,-3.26
2019-02-07T05:10:12.284Z,-3.29
2019-02-07T05:11:12.273Z,-3.28
2019-02-07T05:12:12.313Z,-3.29
2019-02-07T05:13:12.274Z,-3.33
2019-02-07T05:14:12.249Z,-3.29
2019-02-07T05:15:12.237Z,-3.33
2019-02-07T05:16:12.222Z,-3.35
2019-02-07T05:17:12.256Z,-3.29
2019-02-07T05:18:12.211Z,-3.35
2019-02-07T05:19:12.197Z,-3.26
2019-02-07T05:20:12.182Z,-3.25
2019-02-07T05:21:12.208Z,-3.29
2019-02-07T05:22:12.156Z,-3.29
2019-02-07T05:23:12.161Z,-3.33
2019-02-07T05:24:12.163Z,-3.28
2019-02-07T05:25:12.151Z,-3.28
2019-02-07T05:26:12.211Z,-3.29
2019-02-07T05:27:12.627Z,-3.31
2019-02-07T05:28:12.636Z,-3.26
2019-02-07T05:29:12.107Z,-3.28
2019-02-07T05:30:12.091Z,-3.28
2019-02-07T05:31:12.091Z,-3.29
2019-02-07T05:32:12.065Z,-3.25
2019-02-07T05:33:12.048Z,-3.28
2019-02-07T05:34:12.091Z,-3.33
2019-02-07T05:35:12.027Z,-3.23
2019-02-07T05:36:12.016Z,-3.28
2019-02-07T05:37:12.041Z,-3.20
2019-02-07T05:38:12.000Z,-3.26
2019-02-07T05:39:11.989Z,-3.35
2019-02-07T05:40:11.977Z,-3.20
2019-02-07T05:41:11.972Z,-3.25
2019-02-07T05:42:11.968Z,-3.22
2019-02-07T05:43:11.979Z,-3.25
2019-02-07T05:44:11.949Z,-3.32
2019-02-07T05:45:11.933Z,-3.25
2019-02-07T05:46:11.924Z,-3.29
2019-02-07T05:47:11.908Z,-3.28
2019-02-07T05:48:11.917Z,-3.23
2019-02-07T05:49:12.167Z,-3.20
2019-02-07T05:50:11.876Z,-3.22
2019-02-07T05:51:11.870Z,-3.29
2019-02-07T05:52:11.863Z,-3.33
2019-02-07T05:53:11.848Z,-3.35
2019-02-07T05:54:11.835Z,-3.33
2019-02-07T05:55:11.867Z,-3.32
2019-02-07T05:56:11.821Z,-3.28
2019-02-07T05:57:11.814Z,-3.22
2019-02-07T05:58:11.837Z,-3.18
2019-02-07T05:59:11.811Z,-3.13
2019-02-07T06:00:11.827Z,-3.18
2019-02-07T06:01:11.774Z,-3.20
2019-02-07T06:02:11.764Z,-3.18
2019-02-07T06:03:11.787Z,-3.25
2019-02-07T06:04:11.748Z,-3.26
2019-02-07T06:05:11.728Z,-3.25
2019-02-07T06:06:11.722Z,-3.28
2019-02-07T06:07:11.721Z,-3.25
2019-02-07T06:08:11.735Z,-3.23
2019-02-07T06:09:11.698Z,-3.22
2019-02-07T06:10:11.685Z,-3.22
2019-02-07T06:11:11.674Z,-3.22
2019-02-07T06:12:11.663Z,-3.23
2019-02-07T06:13:11.688Z,-3.18
2019-02-07T06:14:11.650Z,-3.18
2019-02-07T06:15:11.631Z,-3.22
2019-02-07T06:16:11.624Z,-3.23
2019-02-07T06:17:11.646Z,-3.23
2019-02-07T06:18:11.602Z,-3.22
2019-02-07T06:19:11.590Z,-3.22
2019-02-07T06:20:11.714Z,-3.25
2019-02-07T06:21:11.575Z,-3.23
2019-02-07T06:22:11.563Z,-3.26
2019-02-07T06:23:11.555Z,-3.23
2019-02-07T06:24:11.549Z,-3.28
2019-02-07T06:25:11.538Z,-3.28
2019-02-07T06:26:11.575Z,-3.28
2019-02-07T06:27:11.520Z,-3.17
2019-02-07T06:28:11.505Z,-3.17
2019-02-07T06:29:11.500Z,-3.25
2019-02-07T06:30:11.500Z,-3.20
2019-02-07T06:31:11.477Z,-3.25
2019-02-07T06:32:11.491Z,-3.29
2019-02-07T06:33:11.483Z,-3.20
2019-02-07T06:34:11.448Z,-3.26
2019-02-07T06:35:11.439Z,-3.20
2019-02-07T06:36:11.443Z,-3.23
2019-02-07T06:37:11.417Z,-3.10
2019-02-07T06:38:11.409Z,-3.17
2019-02-07T06:39:11.422Z,-3.20
2019-02-07T06:40:11.382Z,-3.20
2019-02-07T06:41:11.381Z,-3.20
2019-02-07T06:42:11.370Z,-3.26
2019-02-07T06:43:11.358Z,-3.28
2019-02-07T06:44:11.351Z,-3.23
2019-02-07T06:45:11.367Z,-3.23
2019-02-07T06:46:11.330Z,-3.22
2019-02-07T06:47:13.548Z,-3.26
2019-02-07T06:48:11.306Z,-3.23
2019-02-07T06:49:11.541Z,-3.25
2019-02-07T06:50:11.285Z,-3.23
2019-02-07T06:51:11.276Z,-3.22
2019-02-07T06:52:11.270Z,-3.25
2019-02-07T06:53:11.414Z,-3.20
2019-02-07T06:54:11.249Z,-3.14
2019-02-07T06:55:11.284Z,-3.23
2019-02-07T06:56:11.231Z,-3.20
2019-02-07T06:57:11.212Z,-3.14
2019-02-07T06:58:11.220Z,-3.22
2019-02-07T06:59:11.208Z,-3.15
2019-02-07T07:00:11.226Z,-3.13
2019-02-07T07:01:11.173Z,-3.13
2019-02-07T07:02:11.168Z,-3.18
2019-02-07T07:03:11.153Z,-3.15
2019-02-07T07:04:11.158Z,-3.10
2019-02-07T07:05:11.168Z,-3.15
2019-02-07T07:06:11.173Z,-3.10
2019-02-07T07:07:11.116Z,-3.08
2019-02-07T07:08:11.105Z,-3.28
2019-02-07T07:09:11.097Z,-3.13
2019-02-07T07:10:11.094Z,-3.08
2019-02-07T07:11:11.171Z,-3.00
2019-02-07T07:12:11.161Z,-3.17
2019-02-07T07:13:11.062Z,-3.04
2019-02-07T07:14:11.049Z,-2.90
2019-02-07T07:15:11.040Z,-2.99
2019-02-07T07:16:11.031Z,-3.04
2019-02-07T07:17:11.052Z,-3.10
2019-02-07T07:18:11.007Z,-2.94
2019-02-07T07:19:11.028Z,-3.10
2019-02-07T07:20:10.995Z,-3.07
2019-02-07T07:21:11.044Z,-2.99
2019-02-07T07:22:10.994Z,-2.96
2019-02-07T07:23:10.961Z,-2.94
2019-02-07T07:24:10.950Z,-2.93
2019-02-07T07:25:10.980Z,-2.96
2019-02-07T07:26:10.942Z,-3.02
2019-02-07T07:27:10.926Z,-3.05
2019-02-07T07:28:11.208Z,-3.02
2019-02-07T07:29:10.911Z,-3.08
2019-02-07T07:30:10.894Z,-3.02
2019-02-07T07:31:10.921Z,-2.96
2019-02-07T07:32:10.877Z,-2.96
2019-02-07T07:33:10.861Z,-3.05
2019-02-07T07:34:10.853Z,-3.04
2019-02-07T07:35:10.880Z,-2.92
2019-02-07T07:36:10.831Z,-2.94
2019-02-07T07:37:10.822Z,-2.93
2019-02-07T07:38:10.847Z,-2.92
2019-02-07T07:39:10.805Z,-2.93
2019-02-07T07:40:10.798Z,-2.86
2019-02-07T07:41:10.788Z,-2.85
2019-02-07T07:42:10.777Z,-2.81
2019-02-07T07:43:10.762Z,-2.81
2019-02-07T07:44:10.786Z,-2.86
2019-02-07T07:45:10.823Z,-2.82
2019-02-07T07:46:10.737Z,-2.85
2019-02-07T07:47:10.765Z,-2.64
2019-02-07T07:48:10.716Z,-2.64
2019-02-07T07:49:10.704Z,-2.72
2019-02-07T07:50:10.694Z,-2.64
2019-02-07T07:51:10.681Z,-2.68
2019-02-07T07:52:10.677Z,-2.68
2019-02-07T07:53:10.764Z,-2.61
2019-02-07T07:54:10.659Z,-2.63
2019-02-07T07:55:10.654Z,-2.60
2019-02-07T07:56:10.643Z,-2.58
2019-02-07T07:57:10.644Z,-2.56
2019-02-07T07:58:10.612Z,-2.66
2019-02-07T07:59:10.638Z,-2.61
2019-02-07T08:00:10.659Z,-2.58
2019-02-07T08:01:10.585Z,-2.54
2019-02-07T08:02:10.590Z,-2.54
2019-02-07T08:03:10.567Z,-2.53
2019-02-07T08:04:10.562Z,-2.56
2019-02-07T08:05:10.574Z,-2.50
2019-02-07T08:06:10.534Z,-2.43
2019-02-07T08:07:10.527Z,-2.48
2019-02-07T08:08:10.517Z,-2.48
2019-02-07T08:09:10.542Z,-2.50
2019-02-07T08:10:10.492Z,-2.47
2019-02-07T08:11:10.514Z,-2.48
2019-02-07T08:12:10.478Z,-2.56
2019-02-07T08:13:10.463Z,-2.48
2019-02-07T08:14:10.455Z,-2.40
2019-02-07T08:15:10.463Z,-2.47
2019-02-07T08:16:10.434Z,-2.48
2019-02-07T08:17:10.430Z,-2.42
2019-02-07T08:18:10.415Z,-2.38
2019-02-07T08:19:10.406Z,-2.38
2019-02-07T08:20:10.422Z,-2.35
2019-02-07T08:21:10.415Z,-2.24
2019-02-07T08:22:10.370Z,-2.39
2019-02-07T08:23:10.371Z,-2.35
2019-02-07T08:24:10.351Z,-2.32
2019-02-07T08:25:10.376Z,-2.26
2019-02-07T08:26:10.335Z,-2.20
2019-02-07T08:27:10.332Z,-2.14
2019-02-07T08:28:10.310Z,-2.10
2019-02-07T08:29:10.333Z,-2.11
2019-02-07T08:30:10.300Z,-2.17
2019-02-07T08:31:10.287Z,-2.16
2019-02-07T08:32:10.278Z,-2.16
2019-02-07T08:33:10.258Z,-2.10
2019-02-07T08:34:10.282Z,-2.03
2019-02-07T08:35:10.536Z,-1.98
2019-02-07T08:36:10.231Z,-2.00
2019-02-07T08:37:10.227Z,-1.90
2019-02-07T08:38:10.224Z,-1.88
2019-02-07T08:39:10.202Z,-1.92
2019-02-07T08:40:10.192Z,-1.96
2019-02-07T08:41:10.238Z,-1.85
2019-02-07T08:42:10.172Z,-1.70
2019-02-07T08:43:10.160Z,-1.70
2019-02-07T08:44:13.836Z,-1.64
2019-02-07T08:45:10.192Z,-1.74
2019-02-07T08:46:10.188Z,-1.75
2019-02-07T08:47:10.224Z,-1.72
2019-02-07T08:48:10.117Z,-1.66
2019-02-07T08:49:10.100Z,-1.62
2019-02-07T08:50:10.091Z,-1.74
2019-02-07T08:51:10.092Z,-1.54
2019-02-07T08:52:10.135Z,-1.63
2019-02-07T08:53:10.097Z,-1.54
2019-02-07T08:54:10.056Z,-1.64
2019-02-07T08:55:10.044Z,-1.59
2019-02-07T08:56:10.023Z,-1.49
2019-02-07T08:57:10.028Z,-1.33
2019-02-07T08:58:10.047Z,-1.35
2019-02-07T08:59:09.997Z,-1.28
2019-02-07T09:00:10.055Z,-1.31
2019-02-07T09:01:11.472Z,-1.30
2019-02-07T09:02:09.974Z,-1.38
2019-02-07T09:03:09.963Z,-1.36
2019-02-07T09:04:09.982Z,-1.35
2019-02-07T09:05:09.972Z,-1.31
2019-02-07T09:06:09.925Z,-1.31
2019-02-07T09:07:09.924Z,-1.33
2019-02-07T09:08:09.929Z,-1.38
2019-02-07T09:09:09.918Z,-1.25
2019-02-07T09:10:09.893Z,-1.28
2019-02-07T09:11:09.886Z,-1.45
2019-02-07T09:12:09.910Z,-1.25
2019-02-07T09:13:09.858Z,-1.17
2019-02-07T09:14:09.848Z,-1.23
2019-02-07T09:15:09.837Z,-1.21
2019-02-07T09:16:09.832Z,-1.33
2019-02-07T09:17:09.821Z,-1.41
2019-02-07T09:18:13.204Z,-1.35
2019-02-07T09:19:09.806Z,-1.36
2019-02-07T09:20:09.788Z,-1.36
2019-02-07T09:21:09.782Z,-1.43
2019-02-07T09:22:09.802Z,-1.33
2019-02-07T09:23:09.790Z,-1.36
2019-02-07T09:24:09.745Z,-1.30
2019-02-07T09:25:09.743Z,-1.30
2019-02-07T09:26:09.730Z,-1.36
2019-02-07T09:27:09.721Z,-1.35
2019-02-07T09:28:09.746Z,-1.41
2019-02-07T09:29:09.832Z,-1.39
2019-02-07T09:30:09.682Z,-1.36
2019-02-07T09:31:09.697Z,-1.21
2019-02-07T09:32:09.682Z,-1.23
2019-02-07T09:33:09.661Z,-1.20
2019-02-07T09:34:09.641Z,-1.20
2019-02-07T09:35:09.646Z,-1.13
2019-02-07T09:36:10.171Z,-1.13
2019-02-07T09:37:09.647Z,-1.05
2019-02-07T09:38:09.612Z,-1.05
2019-02-07T09:39:09.603Z,-1.09
2019-02-07T09:40:09.611Z,-1.03
2019-02-07T09:41:09.576Z,-1.09
2019-02-07T09:42:09.562Z,-1.03
2019-02-07T09:43:09.570Z,-0.94
2019-02-07T09:44:09.575Z,-0.86
2019-02-07T09:45:09.577Z,-0.86
2019-02-07T09:46:09.540Z,-0.94
2019-02-07T09:47:09.521Z,-0.91
2019-02-07T09:48:09.503Z,-0.94
2019-02-07T09:49:09.494Z,-0.99
2019-02-07T09:50:09.487Z,-1.06
2019-02-07T09:51:09.509Z,-1.12
2019-02-07T09:52:09.463Z,-1.00
2019-02-07T09:53:09.465Z,-0.94
2019-02-07T09:54:09.444Z,-0.84
2019-02-07T09:55:09.499Z,-0.86
2019-02-07T09:56:09.425Z,-0.75
2019-02-07T09:57:09.413Z,-0.78
2019-02-07T09:58:09.398Z,-0.78
2019-02-07T09:59:09.397Z,-0.83
2019-02-07T10:00:09.442Z,-0.84
2019-02-07T10:01:09.379Z,-0.83
2019-02-07T10:02:09.377Z,-0.84
2019-02-07T10:03:09.384Z,-0.70
2019-02-07T10:04:09.337Z,-0.65
2019-02-07T10:05:09.373Z,-0.72
2019-02-07T10:06:09.319Z,-0.78
2019-02-07T10:07:09.310Z,-0.73
2019-02-07T10:08:09.295Z,-0.65
2019-02-07T10:09:09.320Z,-0.66
2019-02-07T10:10:09.284Z,-0.66
2019-02-07T10:11:09.276Z,-0.63
2019-02-07T10:12:09.268Z,-0.51
2019-02-07T10:13:09.248Z,-0.48
2019-02-07T10:14:09.246Z,-0.59
2019-02-07T10:15:09.256Z,-0.48
2019-02-07T10:16:09.261Z,-0.50
2019-02-07T10:17:09.210Z,-0.48
2019-02-07T10:18:09.207Z,-0.41
2019-02-07T10:19:09.195Z,-0.41
2019-02-07T10:20:09.177Z,-0.41
2019-02-07T10:21:10.994Z,-0.44
2019-02-07T10:22:09.165Z,-0.42
2019-02-07T10:23:09.145Z,-0.45
2019-02-07T10:24:09.137Z,-0.37
2019-02-07T10:25:09.136Z,-0.37
2019-02-07T10:26:09.163Z,-0.41
2019-02-07T10:27:09.152Z,-0.33
2019-02-07T10:28:09.106Z,-0.27
2019-02-07T10:29:09.091Z,-0.33
2019-02-07T10:30:09.085Z,-0.23
2019-02-07T10:31:09.091Z,-0.18
2019-02-07T10:32:09.089Z,-0.37
2019-02-07T10:33:09.045Z,-0.34
2019-02-07T10:34:09.045Z,-0.30
2019-02-07T10:35:09.039Z,-0.37
2019-02-07T10:36:09.047Z,-0.29
2019-02-07T10:37:09.007Z,-0.34
2019-02-07T10:38:08.995Z,-0.37
2019-02-07T10:39:08.993Z,-0.37
2019-02-07T10:40:11.054Z,-0.39
2019-02-07T10:41:08.995Z,-0.39
2019-02-07T10:42:09.617Z,-0.42
2019-02-07T10:43:08.951Z,-0.45
2019-02-07T10:44:08.939Z,-0.51
2019-02-07T10:45:08.931Z,-0.50
2019-02-07T10:46:08.937Z,-0.50
2019-02-07T10:47:08.902Z,-0.45
2019-02-07T10:48:08.908Z,-0.41
2019-02-07T10:49:08.885Z,-0.36
2019-02-07T10:50:08.882Z,-0.31
2019-02-07T10:51:08.902Z,-0.34
2019-02-07T10:52:08.858Z,-0.33
2019-02-07T10:53:08.845Z,-0.44
2019-02-07T10:54:08.846Z,-0.44
2019-02-07T10:55:08.865Z,-0.44
2019-02-07T10:56:08.826Z,-0.30
2019-02-07T10:57:08.807Z,-0.33
2019-02-07T10:58:08.795Z,-0.33
2019-02-07T10:59:08.775Z,-0.22
2019-02-07T11:00:08.778Z,-0.37
2019-02-07T11:01:08.789Z,-0.19
2019-02-07T11:02:08.771Z,-0.23
2019-02-07T11:03:08.742Z,-0.26
2019-02-07T11:04:08.732Z,-0.22
2019-02-07T11:05:08.750Z,-0.27
2019-02-07T11:06:08.953Z,-0.27
2019-02-07T11:07:08.702Z,-0.13
2019-02-07T11:08:08.700Z,0.05
2019-02-07T11:09:08.687Z,0.10
2019-02-07T11:10:08.677Z,0.06
2019-02-07T11:11:08.675Z,0.06
2019-02-07T11:12:08.704Z,0.09
2019-02-07T11:13:08.634Z,0.02
2019-02-07T11:14:08.634Z,0.07
2019-02-07T11:15:08.626Z,0.02
2019-02-07T11:16:08.626Z,-0.06
2019-02-07T11:17:08.595Z,-0.06
2019-02-07T11:18:08.626Z,0.00
2019-02-07T11:19:08.583Z,-0.11
2019-02-07T11:20:08.578Z,-0.13
2019-02-07T11:21:08.590Z,-0.13
2019-02-07T11:22:08.553Z,-0.19
2019-02-07T11:23:08.536Z,-0.24
2019-02-07T11:24:08.529Z,-0.26
2019-02-07T11:25:08.521Z,-0.15
2019-02-07T11:26:08.549Z,-0.30
2019-02-07T11:27:08.506Z,-0.34
2019-02-07T11:28:10.690Z,-0.22
2019-02-07T11:29:08.476Z,-0.24
2019-02-07T11:30:08.477Z,-0.30
2019-02-07T11:31:08.484Z,-0.30
2019-02-07T11:32:08.455Z,-0.30
2019-02-07T11:33:08.433Z,-0.31
2019-02-07T11:34:08.445Z,-0.30
2019-02-07T11:35:08.419Z,-0.13
2019-02-07T11:36:08.452Z,-0.08
2019-02-07T11:37:08.394Z,-0.19
2019-02-07T11:38:08.390Z,-0.11
2019-02-07T11:39:08.378Z,-0.11
2019-02-07T11:40:08.372Z,-0.08
2019-02-07T11:41:08.363Z,-0.12
2019-02-07T11:42:08.384Z,-0.12
2019-02-07T11:43:08.334Z,0.00
2019-02-07T11:44:08.333Z,-0.05
2019-02-07T11:45:08.311Z,-0.06
2019-02-07T11:46:08.340Z,-0.15
2019-02-07T11:47:08.299Z,-0.04
2019-02-07T11:48:08.286Z,0.03
2019-02-07T11:49:10.159Z,0.12
2019-02-07T11:50:08.281Z,0.12
2019-02-07T11:51:08.296Z,0.06
2019-02-07T11:52:08.262Z,-0.06
2019-02-07T11:53:08.252Z,-0.06
2019-02-07T11:54:08.228Z,-0.04
2019-02-07T11:55:17.698Z,-0.06
2019-02-07T11:56:08.237Z,-0.16
2019-02-07T11:57:08.188Z,-0.27
2019-02-07T11:58:08.218Z,-0.15
2019-02-07T11:59:08.203Z,-0.27
2019-02-07T12:00:08.218Z,-0.13
2019-02-07T12:01:08.154Z,-0.11
2019-02-07T12:02:09.338Z,-0.05
2019-02-07T12:03:08.140Z,-0.01
2019-02-07T12:04:08.160Z,0.00
2019-02-07T12:05:08.141Z,0.13
2019-02-07T12:06:08.690Z,0.00
2019-02-07T12:07:08.144Z,0.02
2019-02-07T12:08:08.073Z,0.02
2019-02-07T12:09:08.068Z,-0.01
2019-02-07T12:10:08.061Z,0.02
2019-02-07T12:11:08.079Z,0.20
2019-02-07T12:12:08.075Z,0.24
2019-02-07T12:13:08.660Z,0.31
2019-02-07T12:14:08.026Z,0.25
2019-02-07T12:15:08.003Z,0.20
2019-02-07T12:16:07.991Z,0.12
2019-02-07T12:17:08.014Z,0.18
2019-02-07T12:18:07.969Z,0.34
2019-02-07T12:19:17.808Z,0.28
2019-02-07T12:20:08.964Z,0.39
2019-02-07T12:21:07.947Z,0.41
2019-02-07T12:22:07.940Z,0.45
2019-02-07T12:23:07.964Z,0.41
2019-02-07T12:24:07.915Z,0.41
2019-02-07T12:25:07.901Z,0.46
2019-02-07T12:26:07.902Z,0.60
2019-02-07T12:27:07.873Z,0.67
2019-02-07T12:28:07.876Z,0.65
2019-02-07T12:29:08.217Z,0.60
2019-02-07T12:30:07.850Z,0.51
2019-02-07T12:31:07.839Z,0.58
2019-02-07T12:32:07.826Z,0.58
2019-02-07T12:33:07.814Z,0.46
2019-02-07T12:34:07.832Z,0.39
2019-02-07T12:35:07.812Z,0.36
2019-02-07T12:36:07.785Z,0.31
2019-02-07T12:37:07.832Z,0.30
2019-02-07T12:38:07.771Z,0.38
2019-02-07T12:39:07.763Z,0.43
2019-02-07T12:40:07.801Z,0.39
2019-02-07T12:41:07.736Z,0.41
2019-02-07T12:42:07.776Z,0.46
2019-02-07T12:43:07.718Z,0.52
2019-02-07T12:44:07.719Z,0.70
2019-02-07T12:45:07.698Z,0.65
2019-02-07T12:46:07.688Z,0.52
2019-02-07T12:47:07.739Z,0.48
2019-02-07T12:48:07.671Z,0.57
2019-02-07T12:49:07.656Z,0.51
2019-02-07T12:50:07.658Z,0.45
2019-02-07T12:51:07.645Z,0.53
2019-02-07T12:52:07.674Z,0.51
2019-02-07T12:53:07.620Z,0.53
2019-02-07T12:54:07.608Z,0.52